Time;durP1;ratioP1;P1;durP2;ratioP2;P2;SDS_P1;SDS_P2;PMS_P1;PMS_P2;Temp;Humidity;BMP_temperature;BMP_pressure;BME280_temperature;BME280_humidity;BME280_pressure;Samples;Min_cycle;Max_cycle;Signal;HPM_P1;HPM_P2
2021/12/22 00:01:43;;;;;;;32.30;11.15;;;;;;;0.57;73.89;100937.72;4985271;28;20133;-49
2021/12/22 00:04:10;;;;;;;27.58;9.80;;;;;;;0.54;73.23;100953.69;4987147;28;20046;-51
2021/12/22 00:06:37;;;;;;;28.95;10.25;;;;;;;0.51;73.10;100944.22;4985860;28;20050;-49
2021/12/22 00:09:05;;;;;;;27.60;9.90;;;;;;;0.47;73.66;100937.22;4986715;28;20042;-50
2021/12/22 00:11:32;;;;;;;28.20;10.23;;;;;;;0.46;73.05;100935.47;4989188;28;20054;-48
2021/12/22 00:13:59;;;;;;;29.90;11.45;;;;;;;0.42;73.57;100935.22;4986264;28;20061;-48
2021/12/22 00:16:25;;;;;;;25.33;9.77;;;;;;;0.41;73.65;100931.81;4988600;28;20054;-53
2021/12/22 00:18:52;;;;;;;27.85;11.38;;;;;;;0.40;73.70;100935.13;4988753;28;20049;-48
2021/12/22 00:21:20;;;;;;;29.63;11.18;;;;;;;0.40;72.96;100929.16;4988096;28;20109;-50
2021/12/22 00:23:47;;;;;;;37.78;13.13;;;;;;;0.36;74.10;100917.91;4983214;28;20046;-51
2021/12/22 00:26:15;;;;;;;30.50;11.38;;;;;;;0.33;74.17;100912.66;4986556;28;20092;-48
2021/12/22 00:28:44;;;;;;;27.83;10.35;;;;;;;0.28;73.80;100903.91;4986285;28;20048;-52
2021/12/22 00:31:13;;;;;;;32.85;9.02;;;;;;;0.22;73.78;100900.25;4971517;28;20648;-48
2021/12/22 00:33:51;;;;;;;32.20;10.68;;;;;;;0.15;73.66;100893.06;4971417;28;20039;-51
2021/12/22 00:36:21;;;;;;;28.85;11.00;;;;;;;0.10;73.42;100891.94;4985923;28;20089;-48
2021/12/22 00:38:49;;;;;;;29.23;10.70;;;;;;;0.09;73.66;100902.91;4971127;28;20132;-47
2021/12/22 00:41:16;;;;;;;30.80;11.13;;;;;;;0.07;73.58;100896.88;4987408;28;20053;-50
2021/12/22 00:43:43;;;;;;;29.73;10.90;;;;;;;0.03;73.71;100902.59;4985125;28;20059;-49
2021/12/22 00:46:12;;;;;;;30.85;11.07;;;;;;;-0.01;73.41;100897.34;4983529;28;20066;-47
2021/12/22 00:48:40;;;;;;;24.10;9.75;;;;;;;-0.05;74.52;100889.44;5002547;28;20137;-48
2021/12/22 00:51:07;;;;;;;25.80;8.85;;;;;;;-0.10;74.27;100886.63;4984329;28;20108;-50
2021/12/22 00:53:34;;;;;;;29.05;10.25;;;;;;;-0.13;73.72;100892.44;4990331;28;20054;-47
2021/12/22 00:56:02;;;;;;;28.25;10.90;;;;;;;-0.12;74.09;100890.78;4988888;28;20050;-53
2021/12/22 00:58:29;;;;;;;30.02;11.02;;;;;;;-0.15;73.71;100878.75;4986153;28;20046;-50
2021/12/22 01:00:55;;;;;;;28.33;12.48;;;;;;;-0.17;74.63;100874.38;4986858;28;20054;-48
2021/12/22 01:03:22;;;;;;;26.33;10.63;;;;;;;-0.18;74.86;100867.50;4986704;28;20403;-53
2021/12/22 01:05:49;;;;;;;30.35;11.57;;;;;;;-0.23;74.55;100863.84;4986201;28;20064;-51
2021/12/22 01:08:16;;;;;;;25.00;9.35;;;;;;;-0.30;74.56;100865.19;4985019;28;20434;-52
2021/12/22 01:10:42;;;;;;;27.90;10.80;;;;;;;-0.35;74.40;100859.84;4987636;28;20562;-49
2021/12/22 01:13:10;;;;;;;26.58;10.93;;;;;;;-0.41;74.66;100851.84;4989880;28;20101;-49
2021/12/22 01:15:37;;;;;;;23.50;9.55;;;;;;;-0.43;74.52;100850.91;4989201;28;20383;-52
2021/12/22 01:18:15;;;;;;;32.10;10.75;;;;;;;-0.44;74.37;100859.34;4986246;28;20132;-53
2021/12/22 01:21:03;;;;;;;25.67;10.18;;;;;;;-0.46;74.77;100858.38;5000538;28;20058;-50
2021/12/22 01:23:39;;;;;;;30.45;11.25;;;;;;;-0.49;74.42;100855.66;4990103;28;20097;-51
2021/12/22 01:26:08;;;;;;;27.27;11.25;;;;;;;-0.50;74.64;100853.91;4986406;28;20054;-46
2021/12/22 01:28:41;;;;;;;27.10;9.77;;;;;;;-0.55;74.62;100849.44;4986805;28;20050;-46
2021/12/22 01:31:13;;;;;;;28.95;11.57;;;;;;;-0.57;74.41;100848.47;4987926;28;20494;-50
2021/12/22 01:33:40;;;;;;;28.77;10.48;;;;;;;-0.59;74.89;100837.34;4988289;28;20438;-50
2021/12/22 01:36:07;;;;;;;26.02;9.13;;;;;;;-0.63;75.00;100831.97;4984412;28;20410;-46
2021/12/22 01:38:33;;;;;;;29.15;10.35;;;;;;;-0.66;74.59;100828.50;4987909;28;20042;-48
2021/12/22 01:41:00;;;;;;;30.08;11.25;;;;;;;-0.67;74.86;100828.41;4988316;28;20050;-46
2021/12/22 01:43:27;;;;;;;34.15;12.05;;;;;;;-0.68;74.98;100834.25;4985450;28;20442;-47
2021/12/22 01:51:46;;;;;;;25.58;10.45;;;;;;;-0.73;75.04;100835.69;4984533;28;20553;-46
2021/12/22 01:57:11;;;;;;;27.13;10.73;;;;;;;-0.79;75.41;100842.19;5005154;28;20391;-50
2021/12/22 01:59:41;;;;;;;26.05;12.18;;;;;;;-0.78;75.34;100833.75;4999614;28;20046;-48
2021/12/22 02:02:10;;;;;;;28.40;10.90;;;;;;;-0.75;75.89;100829.66;4993801;28;20146;-47
2021/12/22 02:04:38;;;;;;;32.42;10.73;;;;;;;-0.72;75.59;100820.50;4994666;28;20417;-50
2021/12/22 02:07:08;;;;;;;28.38;12.45;;;;;;;-0.66;75.66;100823.41;4995197;28;20101;-51
2021/12/22 02:12:24;;;;;;;32.42;12.77;;;;;;;-0.65;76.00;100827.69;5022823;28;20117;-49
2021/12/22 02:14:51;;;;;;;37.70;11.27;;;;;;;-0.63;75.33;100825.25;4997109;28;20980;-49
2021/12/22 02:17:18;;;;;;;30.05;11.80;;;;;;;-0.62;75.25;100824.44;5000391;28;20062;-49
2021/12/22 02:19:46;;;;;;;29.75;9.38;;;;;;;-0.64;75.55;100820.94;4999333;28;20367;-48
2021/12/22 02:22:14;;;;;;;28.60;11.60;;;;;;;-0.65;75.76;100824.25;4998759;28;20080;-52
2021/12/22 02:24:50;;;;;;;32.28;12.15;;;;;;;-0.67;75.09;100830.94;5001914;28;20054;-50
2021/12/22 02:27:26;;;;;;;29.10;10.90;;;;;;;-0.68;75.35;100821.53;5000035;28;20050;-46
2021/12/22 02:29:59;;;;;;;30.65;11.25;;;;;;;-0.70;74.97;100820.59;5006038;28;20042;-49
2021/12/22 02:35:14;;;;;;;30.75;11.45;;;;;;;-0.73;75.49;100820.41;4998369;28;20054;-48
2021/12/22 02:37:44;;;;;;;31.50;13.40;;;;;;;-0.75;75.44;100816.94;5005003;28;20050;-51
2021/12/22 02:40:17;;;;;;;32.92;10.60;;;;;;;-0.78;75.55;100818.50;5000762;28;20078;-51
2021/12/22 02:42:47;;;;;;;32.97;11.82;;;;;;;-0.81;75.64;100807.28;5003186;28;20181;-52
2021/12/22 02:45:16;;;;;;;25.70;10.60;;;;;;;-0.86;75.83;100811.22;4998936;28;20097;-48
2021/12/22 02:47:43;;;;;;;23.90;10.43;;;;;;;-0.91;75.45;100805.91;4998911;28;20050;-51
2021/12/22 02:50:12;;;;;;;28.35;8.63;;;;;;;-0.98;75.85;100801.25;5002211;28;20753;-47
2021/12/22 02:52:54;;;;;;;23.85;10.10;;;;;;;-1.12;75.50;100793.69;5028816;28;20046;-50
2021/12/22 02:55:28;;;;;;;24.73;10.10;;;;;;;-1.18;75.76;100795.91;5001165;28;20101;-50
2021/12/22 02:57:59;;;;;;;25.73;10.00;;;;;;;-1.26;75.88;100792.91;5005334;28;20086;-50
2021/12/22 03:00:45;;;;;;;28.30;11.20;;;;;;;-1.31;75.95;100795.19;5001884;28;20061;-51
2021/12/22 03:03:32;;;;;;;27.58;10.88;;;;;;;-1.33;75.24;100791.69;5001770;28;20065;-50
2021/12/22 03:06:02;;;;;;;20.38;8.10;;;;;;;-1.42;75.81;100792.03;5003018;28;20054;-48
2021/12/22 03:08:28;;;;;;;23.38;10.02;;;;;;;-1.45;75.23;100796.06;4989234;28;20046;-48
2021/12/22 03:10:55;;;;;;;22.08;8.75;;;;;;;-1.51;75.56;100795.69;4987884;28;20038;-49
2021/12/22 03:13:24;;;;;;;24.27;9.32;;;;;;;-1.55;76.15;100795.53;4987376;28;20054;-50
2021/12/22 03:15:50;;;;;;;28.33;10.68;;;;;;;-1.55;75.81;100799.75;4988073;28;20050;-50
2021/12/22 03:18:18;;;;;;;22.70;9.50;;;;;;;-1.51;75.80;100805.88;4988729;28;20104;-52
2021/12/22 03:20:45;;;;;;;24.88;9.52;;;;;;;-1.46;76.04;100809.53;4990219;28;20101;-52
2021/12/22 03:23:12;;;;;;;28.95;10.30;;;;;;;-1.42;75.73;100801.31;4982525;28;20058;-49
2021/12/22 03:25:39;;;;;;;24.63;10.45;;;;;;;-1.36;75.42;100805.88;4990098;28;20042;-51
2021/12/22 03:28:06;;;;;;;21.33;9.07;;;;;;;-1.33;75.79;100796.78;4989424;28;20490;-49
2021/12/22 03:30:33;;;;;;;20.75;10.88;;;;;;;-1.25;76.13;100791.25;4988741;28;20106;-47
2021/12/22 03:33:00;;;;;;;20.58;9.68;;;;;;;-1.22;75.91;100779.59;4985604;28;20058;-50
2021/12/22 03:35:26;;;;;;;27.35;10.57;;;;;;;-1.18;75.92;100778.13;4989304;28;20050;-47
2021/12/22 03:37:57;;;;;;;20.23;9.50;;;;;;;-1.13;75.41;100770.72;4987556;28;20054;-49
2021/12/22 03:40:25;;;;;;;29.88;9.23;;;;;;;-1.09;75.31;100770.09;4989361;28;20487;-46
2021/12/22 03:42:52;;;;;;;29.92;9.82;;;;;;;-1.09;75.22;100759.94;4985960;28;20107;-49
2021/12/22 03:45:19;;;;;;;24.15;10.40;;;;;;;-1.08;75.47;100757.47;4987327;28;20053;-47
2021/12/22 03:47:46;;;;;;;27.80;8.68;;;;;;;-1.07;75.20;100771.97;4985568;28;20128;-47
2021/12/22 03:50:17;;;;;;;20.00;10.00;;;;;;;-1.07;75.69;100764.34;4985768;28;20054;-48
2021/12/22 03:52:44;;;;;;;23.58;9.55;;;;;;;-1.06;75.46;100755.03;4980038;28;20546;-47
2021/12/22 03:55:11;;;;;;;31.65;9.88;;;;;;;-1.05;75.41;100762.75;4986491;28;20050;-54
2021/12/22 03:57:37;;;;;;;22.23;7.13;;;;;;;-1.04;75.12;100763.63;4988807;28;20485;-53
2021/12/22 04:00:07;;;;;;;22.50;9.70;;;;;;;-1.07;74.98;100759.25;4985693;28;20105;-50
2021/12/22 04:02:34;;;;;;;18.85;8.27;;;;;;;-1.09;74.70;100757.41;4983666;28;20042;-48
2021/12/22 04:05:01;;;;;;;21.95;9.55;;;;;;;-1.09;75.09;100750.66;4983916;28;20051;-50
2021/12/22 04:07:28;;;;;;;20.38;8.35;;;;;;;-1.12;74.93;100745.41;4987735;28;20565;-52
2021/12/22 04:09:54;;;;;;;20.75;8.57;;;;;;;-1.14;75.18;100744.44;4987252;28;20050;-51
2021/12/22 04:12:21;;;;;;;24.27;10.10;;;;;;;-1.18;74.97;100745.06;4987038;28;20120;-51
2021/12/22 04:14:47;;;;;;;23.77;9.57;;;;;;;-1.21;74.90;100747.44;4984058;28;20046;-48
2021/12/22 04:17:14;;;;;;;24.25;8.73;;;;;;;-1.27;75.07;100731.81;4981894;28;20070;-49
2021/12/22 04:19:41;;;;;;;21.17;9.30;;;;;;;-1.29;75.23;100729.19;4983563;28;20104;-48
2021/12/22 04:22:08;;;;;;;20.77;9.95;;;;;;;-1.33;75.22;100735.78;4983328;28;20050;-54
2021/12/22 04:24:38;;;;;;;23.30;9.20;;;;;;;-1.30;76.02;100720.72;4988466;28;20141;-48
2021/12/22 04:27:04;;;;;;;28.90;9.38;;;;;;;-1.22;76.08;100722.81;4985562;28;20092;-48
2021/12/22 04:29:31;;;;;;;23.92;9.95;;;;;;;-1.19;75.45;100722.97;4983979;28;20101;-50
2021/12/22 04:31:58;;;;;;;20.48;8.38;;;;;;;-1.15;75.45;100714.72;4984585;28;20050;-49
2021/12/22 04:34:24;;;;;;;23.52;9.48;;;;;;;-1.15;75.98;100717.25;4983813;28;20042;-52
2021/12/22 04:36:51;;;;;;;27.98;9.07;;;;;;;-1.12;75.75;100716.56;4989179;28;20043;-51
2021/12/22 04:39:17;;;;;;;26.27;10.10;;;;;;;-1.11;75.78;100726.81;4979471;28;20104;-50
2021/12/22 04:41:44;;;;;;;29.38;9.40;;;;;;;-1.12;75.53;100732.69;4984870;28;20050;-52
2021/12/22 04:44:10;;;;;;;26.42;8.10;;;;;;;-1.10;75.72;100731.13;4983248;28;20054;-49
2021/12/22 04:46:37;;;;;;;21.85;7.85;;;;;;;-1.10;75.30;100725.13;4984563;28;21581;-49
2021/12/22 04:49:04;;;;;;;27.58;8.63;;;;;;;-1.11;75.75;100726.81;4988457;28;20042;-52
2021/12/22 04:51:33;;;;;;;25.02;8.48;;;;;;;-1.10;75.08;100720.06;4982567;28;20707;-51
2021/12/22 04:56:46;;;;;;;21.80;9.95;;;;;;;-1.17;74.81;100721.38;4983622;28;20132;-54
2021/12/22 04:59:12;;;;;;;27.88;10.52;;;;;;;-1.18;75.54;100714.56;4991588;28;20490;-52
2021/12/22 05:01:39;;;;;;;32.90;11.10;;;;;;;-1.20;75.11;100708.50;4983397;28;20100;-52
2021/12/22 05:04:06;;;;;;;22.13;8.93;;;;;;;-1.22;76.05;100707.56;4980103;28;20058;-49
2021/12/22 05:06:35;;;;;;;29.98;9.57;;;;;;;-1.21;75.00;100711.84;4984978;28;20082;-51
2021/12/22 05:09:03;;;;;;;33.25;10.05;;;;;;;-1.22;74.94;100710.09;4986077;28;20046;-48
2021/12/22 05:11:30;;;;;;;22.15;9.57;;;;;;;-1.23;75.35;100708.31;4986411;28;20112;-50
2021/12/22 05:13:57;;;;;;;22.65;8.05;;;;;;;-1.24;75.21;100698.94;4985598;28;20038;-50
2021/12/22 05:16:23;;;;;;;23.73;9.70;;;;;;;-1.27;74.72;100693.69;4986051;28;20101;-51
2021/12/22 05:18:56;;;;;;;20.45;8.88;;;;;;;-1.27;75.59;100691.16;4987372;28;20076;-52
2021/12/22 05:21:24;;;;;;;27.58;9.98;;;;;;;-1.28;75.33;100686.88;4984385;28;20104;-50
2021/12/22 05:23:54;;;;;;;23.42;9.98;;;;;;;-1.32;75.02;100681.59;4985636;28;20050;-47
2021/12/22 05:26:22;;;;;;;23.52;9.73;;;;;;;-1.33;75.18;100684.94;4985720;28;20097;-48
2021/12/22 05:28:49;;;;;;;27.35;9.85;;;;;;;-1.34;75.27;100693.38;4990760;28;20104;-49
2021/12/22 05:31:15;;;;;;;29.17;10.18;;;;;;;-1.39;74.74;100684.59;4984187;28;20050;-49
2021/12/22 05:33:42;;;;;;;28.52;10.02;;;;;;;-1.40;75.34;100680.31;4985016;28;20664;-50
2021/12/22 05:36:09;;;;;;;27.52;10.13;;;;;;;-1.42;75.35;100674.25;4987669;28;20795;-52
2021/12/22 05:38:36;;;;;;;27.25;10.18;;;;;;;-1.44;75.27;100670.75;4983467;28;20062;-50
2021/12/22 05:41:03;;;;;;;27.25;9.35;;;;;;;-1.47;75.66;100660.41;4985729;28;20058;-52
2021/12/22 05:43:29;;;;;;;23.17;9.98;;;;;;;-1.48;76.01;100663.75;4987983;28;20105;-49
2021/12/22 05:45:56;;;;;;;26.58;10.15;;;;;;;-1.51;75.07;100664.47;4990227;28;20046;-50
2021/12/22 05:48:23;;;;;;;24.17;10.73;;;;;;;-1.50;75.46;100662.78;4987154;28;20050;-51
2021/12/22 05:50:52;;;;;;;26.63;10.40;;;;;;;-1.51;75.59;100658.50;4989021;28;20074;-50
2021/12/22 05:53:19;;;;;;;28.38;10.68;;;;;;;-1.53;75.17;100649.94;4988624;28;20585;-50
2021/12/22 05:55:46;;;;;;;23.45;9.32;;;;;;;-1.56;75.75;100646.41;4987232;28;20046;-50
2021/12/22 05:58:12;;;;;;;25.65;10.00;;;;;;;-1.58;75.48;100642.91;4987479;28;20560;-49
2021/12/22 06:00:39;;;;;;;24.77;10.15;;;;;;;-1.59;75.68;100646.22;4986617;28;20046;-52
2021/12/22 06:03:06;;;;;;;24.15;9.75;;;;;;;-1.59;75.62;100651.31;4984077;28;20054;-52
2021/12/22 06:05:32;;;;;;;21.50;8.57;;;;;;;-1.58;76.33;100642.91;4987233;28;20109;-48
2021/12/22 06:07:59;;;;;;;23.77;7.93;;;;;;;-1.57;75.93;100639.59;4982230;28;20383;-49
2021/12/22 06:10:26;;;;;;;24.55;10.00;;;;;;;-1.55;75.28;100642.22;4987019;28;20105;-50
2021/12/22 06:12:52;;;;;;;23.08;9.85;;;;;;;-1.53;75.46;100637.22;4985380;28;20122;-51
2021/12/22 06:15:19;;;;;;;24.85;10.40;;;;;;;-1.53;75.68;100634.69;4988499;28;20050;-50
2021/12/22 06:17:48;;;;;;;23.40;10.43;;;;;;;-1.51;75.42;100638.16;4986030;28;20054;-50
2021/12/22 06:20:15;;;;;;;21.70;9.45;;;;;;;-1.52;75.56;100621.19;4985412;28;20104;-50
2021/12/22 06:22:41;;;;;;;24.63;7.75;;;;;;;-1.51;76.25;100617.84;4987293;28;20395;-53
2021/12/22 06:25:08;;;;;;;25.27;9.57;;;;;;;-1.51;76.19;100620.38;4986823;28;20125;-52
2021/12/22 06:27:35;;;;;;;30.10;11.00;;;;;;;-1.50;76.09;100627.22;4980040;28;20069;-49
2021/12/22 06:30:02;;;;;;;30.35;11.35;;;;;;;-1.50;75.15;100630.63;4982269;28;20697;-51
2021/12/22 06:32:29;;;;;;;19.55;11.43;;;;;;;-1.52;75.27;100621.19;4986442;28;20046;-51
2021/12/22 06:34:55;;;;;;;24.90;10.43;;;;;;;-1.53;75.60;100620.28;4997848;28;20532;-50
2021/12/22 06:37:22;;;;;;;21.52;9.40;;;;;;;-1.52;76.12;100616.94;4987794;28;20108;-52
2021/12/22 06:39:49;;;;;;;24.95;9.50;;;;;;;-1.50;75.81;100622.13;4986332;28;20046;-51
2021/12/22 06:42:15;;;;;;;18.80;8.75;;;;;;;-1.47;76.96;100619.75;4988136;28;20677;-51
2021/12/22 06:44:42;;;;;;;19.85;8.32;;;;;;;-1.45;76.90;100620.72;4989763;28;20054;-49
2021/12/22 06:47:10;;;;;;;14.65;6.88;;;;;;;-1.43;76.80;100626.75;4989505;28;20051;-51
2021/12/22 06:49:37;;;;;;;21.80;9.50;;;;;;;-1.41;76.91;100620.13;4991426;28;20042;-52
2021/12/22 06:52:04;;;;;;;17.05;7.97;;;;;;;-1.43;76.93;100608.97;4989240;28;20058;-47
2021/12/22 06:54:31;;;;;;;16.25;7.38;;;;;;;-1.43;77.02;100620.03;4994714;28;20047;-47
2021/12/22 06:56:58;;;;;;;25.75;8.45;;;;;;;-1.50;77.53;100614.50;4988701;28;20101;-52
2021/12/22 06:59:24;;;;;;;12.55;7.25;;;;;;;-1.51;76.62;100617.84;4993397;28;20100;-51
2021/12/22 07:01:51;;;;;;;17.13;8.93;;;;;;;-1.60;76.55;100614.00;4987784;28;20109;-49
2021/12/22 07:04:18;;;;;;;16.08;7.57;;;;;;;-1.65;76.97;100625.59;4988203;28;20058;-51
2021/12/22 07:06:45;;;;;;;19.92;8.13;;;;;;;-1.68;76.76;100621.19;4992914;28;20101;-50
2021/12/22 07:09:12;;;;;;;21.92;8.40;;;;;;;-1.70;77.51;100621.88;4988394;28;20054;-53
2021/12/22 07:11:39;;;;;;;17.90;7.82;;;;;;;-1.69;76.81;100626.19;4987758;28;20050;-47
2021/12/22 07:14:07;;;;;;;21.70;8.35;;;;;;;-1.66;77.07;100622.94;4989516;28;20085;-48
2021/12/22 07:16:35;;;;;;;17.88;6.72;;;;;;;-1.63;76.92;100629.06;4989559;28;20046;-50
2021/12/22 07:19:02;;;;;;;24.25;8.35;;;;;;;-1.60;77.01;100614.00;4990351;28;20049;-53
2021/12/22 07:21:29;;;;;;;15.50;8.07;;;;;;;-1.56;76.60;100621.00;4991424;28;20637;-48
2021/12/22 07:23:56;;;;;;;21.90;10.70;;;;;;;-1.52;76.79;100636.44;4988831;28;20077;-50
2021/12/22 07:26:22;;;;;;;19.25;9.38;;;;;;;-1.48;76.86;100633.25;4990573;28;20050;-52
2021/12/22 07:28:49;;;;;;;20.80;8.55;;;;;;;-1.46;76.68;100636.75;4981316;28;20051;-49
2021/12/22 07:31:17;;;;;;;15.13;7.10;;;;;;;-1.42;76.90;100643.75;4987557;28;20109;-49
2021/12/22 07:33:56;;;;;;;18.20;6.13;;;;;;;-1.37;77.23;100637.28;4987591;28;20309;-49
2021/12/22 07:36:23;;;;;;;16.75;7.05;;;;;;;-1.33;76.60;100644.28;4989287;28;20467;-51
2021/12/22 07:39:05;;;;;;;21.70;5.78;;;;;;;-1.29;77.10;100645.31;4988642;28;20442;-52
2021/12/22 07:41:31;;;;;;;18.73;8.13;;;;;;;-1.25;76.93;100646.38;4994376;28;20058;-48
2021/12/22 07:43:58;;;;;;;17.98;7.57;;;;;;;-1.21;76.24;100643.19;4988096;28;20050;-51
2021/12/22 07:46:25;;;;;;;19.13;8.73;;;;;;;-1.21;77.04;100638.13;4992607;28;20058;-53
2021/12/22 07:48:52;;;;;;;15.95;6.80;;;;;;;-1.18;76.38;100635.75;4990067;28;20605;-49
2021/12/22 07:51:19;;;;;;;23.58;7.82;;;;;;;-1.16;76.36;100636.69;4988461;28;20564;-49
2021/12/22 07:53:45;;;;;;;21.08;7.82;;;;;;;-1.13;76.62;100641.06;4988511;28;20062;-47
2021/12/22 07:56:12;;;;;;;16.65;7.20;;;;;;;-1.08;76.73;100632.03;4989276;28;20669;-52
2021/12/22 07:58:39;;;;;;;16.10;7.82;;;;;;;-1.08;76.93;100634.59;4987842;28;20112;-50
2021/12/22 08:01:06;;;;;;;19.50;7.95;;;;;;;-1.07;76.96;100633.78;4988766;28;20482;-49
2021/12/22 08:03:33;;;;;;;13.35;7.07;;;;;;;-1.04;77.12;100639.91;4989902;28;20045;-51
2021/12/22 08:06:10;;;;;;;15.63;7.65;;;;;;;-1.02;77.40;100639.13;4987617;28;20108;-49
2021/12/22 08:08:36;;;;;;;16.77;7.30;;;;;;;-1.00;76.85;100638.41;4984495;28;20097;-50
2021/12/22 08:11:03;;;;;;;20.23;8.73;;;;;;;-1.00;76.92;100642.59;4984633;28;20047;-53
2021/12/22 08:13:30;;;;;;;18.40;5.75;;;;;;;-0.97;76.84;100641.13;4989731;28;20453;-50
2021/12/22 08:15:56;;;;;;;20.80;8.18;;;;;;;-0.95;76.56;100646.28;4980997;28;20047;-50
2021/12/22 08:18:24;;;;;;;23.08;5.70;;;;;;;-0.95;76.77;100641.22;4984548;28;20398;-51
2021/12/22 08:20:51;;;;;;;17.30;8.07;;;;;;;-0.93;76.75;100649.78;4984301;28;20038;-52
2021/12/22 08:23:18;;;;;;;17.80;7.57;;;;;;;-0.93;76.75;100644.69;4985192;28;20042;-52
2021/12/22 08:25:47;;;;;;;14.52;6.93;;;;;;;-0.92;76.75;100654.06;4985211;28;20050;-51
2021/12/22 08:28:14;;;;;;;15.65;6.28;;;;;;;-0.90;76.62;100655.03;4985192;28;20050;-50
2021/12/22 08:30:41;;;;;;;20.02;7.80;;;;;;;-0.88;76.54;100663.59;4984538;28;20073;-50
2021/12/22 08:33:15;;;;;;;13.35;6.03;;;;;;;-0.83;76.55;100656.22;4986195;28;20046;-48
2021/12/22 08:41:15;;;;;;;18.65;6.80;;;;;;;-0.55;76.52;100648.41;5004851;28;20057;-49
2021/12/22 08:43:47;;;;;;;14.25;6.43;;;;;;;-0.52;76.58;100645.13;4986894;28;20101;-48
2021/12/22 08:46:14;;;;;;;17.20;6.88;;;;;;;-0.48;75.99;100648.72;4983329;28;20097;-50
2021/12/22 08:48:41;;;;;;;15.30;7.25;;;;;;;-0.45;76.75;100653.94;4987745;28;20042;-51
2021/12/22 08:53:43;;;;;;;18.05;7.00;;;;;;;-0.43;76.10;100650.72;5214759;23;20058;-44
2021/12/22 08:56:10;;;;;;;19.38;7.47;;;;;;;-0.39;76.40;100639.00;4979025;28;20057;-48
2021/12/22 08:58:36;;;;;;;18.20;7.28;;;;;;;-0.39;76.37;100633.91;4978534;28;20061;-50
2021/12/22 09:01:04;;;;;;;13.02;7.57;;;;;;;-0.39;76.39;100633.91;4986992;28;20844;-52
2021/12/22 09:03:32;;;;;;;16.13;7.55;;;;;;;-0.38;76.05;100630.56;4983326;28;20061;-49
2021/12/22 09:05:59;;;;;;;14.27;6.35;;;;;;;-0.40;76.03;100627.09;4978909;28;20059;-47
2021/12/22 09:08:26;;;;;;;19.42;6.85;;;;;;;-0.42;75.68;100626.13;4984016;28;20100;-47
2021/12/22 09:10:53;;;;;;;19.00;6.78;;;;;;;-0.42;76.09;100618.47;4982597;28;20104;-50
2021/12/22 09:13:20;;;;;;;18.90;7.43;;;;;;;-0.41;76.03;100620.22;4984548;28;20050;-44
2021/12/22 09:15:48;;;;;;;12.73;6.38;;;;;;;-0.43;76.10;100611.66;4985114;28;20050;-46
2021/12/22 09:18:16;;;;;;;18.02;5.20;;;;;;;-0.41;76.21;100620.22;4988621;28;20417;-46
2021/12/22 09:20:43;;;;;;;13.55;7.00;;;;;;;-0.38;76.25;100617.84;4984085;28;20689;-48
2021/12/22 09:23:09;;;;;;;14.60;6.72;;;;;;;-0.37;76.04;100606.88;4983101;28;20508;-46
2021/12/22 09:25:36;;;;;;;16.70;7.53;;;;;;;-0.35;76.45;100600.19;4987852;28;20046;-48
2021/12/22 09:28:03;;;;;;;13.98;6.53;;;;;;;-0.32;76.63;100602.88;4987098;28;20101;-47
2021/12/22 09:30:35;;;;;;;12.63;5.43;;;;;;;-0.30;76.32;100587.69;4980090;28;20054;-45
2021/12/22 09:33:04;;;;;;;10.93;5.93;;;;;;;-0.26;76.29;100595.53;4983114;28;20104;-47
2021/12/22 09:35:31;;;;;;;12.00;5.70;;;;;;;-0.21;76.39;100589.84;4976824;28;20050;-45
2021/12/22 09:37:58;;;;;;;18.58;6.05;;;;;;;-0.15;76.31;100587.56;4984369;28;20054;-49
2021/12/22 09:40:25;;;;;;;16.90;5.93;;;;;;;-0.08;76.12;100574.34;4984907;28;20510;-49
2021/12/22 09:42:52;;;;;;;13.50;6.22;;;;;;;-0.03;76.49;100572.88;4982584;28;20085;-46
2021/12/22 09:45:21;;;;;;;13.88;6.38;;;;;;;0.05;76.38;100569.84;4982234;28;20066;-46
2021/12/22 09:48:35;;;;;;;13.20;6.18;;;;;;;0.11;76.16;100571.00;4987525;28;20660;-51
2021/12/22 09:50:51;;;;;;;9.63;4.47;;;;;;;0.17;76.85;100555.16;4981047;28;20271;-44
2021/12/22 09:53:25;;;;;;;12.15;5.57;;;;;;;0.24;75.75;100558.88;4973384;28;20110;-48
2021/12/22 09:55:53;;;;;;;15.48;6.57;;;;;;;0.32;76.30;100549.94;4959927;28;20573;-45
2021/12/22 09:58:20;;;;;;;13.57;5.28;;;;;;;0.39;75.56;100556.19;4967031;28;20046;-49
2021/12/22 10:00:48;;;;;;;15.77;5.97;;;;;;;0.48;75.82;100560.84;4961871;28;20981;-44
2021/12/22 10:03:16;;;;;;;15.27;5.97;;;;;;;0.57;75.70;100555.31;4960273;28;20047;-47
2021/12/22 10:05:44;;;;;;;11.88;6.10;;;;;;;0.69;75.89;100555.84;4957713;28;20051;-49
2021/12/22 10:08:16;;;;;;;10.82;5.25;;;;;;;0.75;75.15;100551.03;4962307;28;20058;-47
2021/12/22 10:10:46;;;;;;;15.70;6.63;;;;;;;0.83;75.69;100547.94;4962113;28;20055;-44
2021/12/22 10:13:16;;;;;;;15.45;5.88;;;;;;;0.93;75.86;100539.91;4959958;28;20051;-47
2021/12/22 10:15:44;;;;;;;12.43;6.13;;;;;;;0.97;75.65;100535.81;4964443;28;20105;-47
2021/12/22 10:18:13;;;;;;;15.35;6.32;;;;;;;1.00;75.33;100541.94;4965269;28;20055;-45
2021/12/22 10:20:42;;;;;;;11.77;6.43;;;;;;;1.01;74.40;100551.31;4964732;28;20557;-46
2021/12/22 10:23:30;;;;;;;9.65;4.10;;;;;;;1.00;75.62;100556.34;4964089;28;20404;-46
2021/12/22 10:26:00;;;;;;;11.68;4.40;;;;;;;1.01;74.95;100550.44;4961602;28;20055;-46
2021/12/22 10:28:30;;;;;;;9.88;4.10;;;;;;;0.97;75.02;100553.66;4966791;28;20808;-51
2021/12/22 10:31:01;;;;;;;14.00;5.03;;;;;;;0.96;75.77;100552.81;4964930;28;20059;-46
2021/12/22 10:33:30;;;;;;;10.80;4.57;;;;;;;0.96;74.88;100540.06;4967069;28;20057;-46
2021/12/22 10:35:59;;;;;;;11.50;4.90;;;;;;;0.94;74.87;100541.66;4965277;28;20051;-55
2021/12/22 10:38:31;;;;;;;11.23;5.28;;;;;;;0.98;76.04;100538.44;4968372;28;20678;-49
2021/12/22 10:41:03;;;;;;;11.70;5.55;;;;;;;1.00;75.15;100521.53;4968558;28;20474;-49
2021/12/22 10:43:32;;;;;;;12.27;5.43;;;;;;;1.02;74.88;100526.69;4967906;28;20059;-50
2021/12/22 10:46:02;;;;;;;10.30;6.05;;;;;;;1.00;75.65;100520.63;4964014;28;20105;-47
2021/12/22 10:51:26;;;;;;;13.45;5.20;;;;;;;0.99;74.84;100499.38;4958614;28;20050;-52
2021/12/22 10:53:53;;;;;;;7.45;4.13;;;;;;;0.98;75.02;100497.63;4958405;28;20067;-50
2021/12/22 10:56:22;;;;;;;9.05;4.75;;;;;;;1.00;75.23;100490.91;4962806;28;20501;-51
2021/12/22 10:59:00;;;;;;;11.02;5.80;;;;;;;0.99;75.14;100491.72;4957592;28;20098;-50
2021/12/22 11:01:28;;;;;;;10.98;5.07;;;;;;;1.04;76.09;100489.34;4960033;28;20180;-49
2021/12/22 11:04:03;;;;;;;13.35;5.80;;;;;;;1.07;75.81;100478.41;4964122;28;20062;-55
2021/12/22 11:06:34;;;;;;;9.25;5.03;;;;;;;1.07;75.59;100473.31;4965242;28;20082;-51
2021/12/22 11:09:10;;;;;;;11.35;5.28;;;;;;;1.06;75.85;100479.22;4962458;28;20550;-46
2021/12/22 11:11:41;;;;;;;12.65;5.80;;;;;;;1.08;75.63;100472.50;4968593;28;20469;-54
2021/12/22 11:14:11;;;;;;;11.98;5.88;;;;;;;1.09;75.86;100470.03;4967921;28;20047;-51
2021/12/22 11:17:05;;;;;;;12.95;6.00;;;;;;;1.09;75.50;100469.16;4962694;28;20109;-48
2021/12/22 11:19:53;;;;;;;14.80;5.90;;;;;;;1.10;75.73;100461.56;4966578;28;20059;-52
2021/12/22 11:22:35;;;;;;;9.40;5.22;;;;;;;1.09;75.17;100446.19;4958660;28;20106;-51
2021/12/22 11:25:05;;;;;;;12.38;5.75;;;;;;;1.08;75.64;100441.91;4964328;28;20058;-50
2021/12/22 11:27:34;;;;;;;11.25;5.25;;;;;;;1.10;76.06;100435.16;4964433;28;20106;-49
2021/12/22 11:30:03;;;;;;;12.93;5.32;;;;;;;1.09;74.86;100434.31;4966571;28;20134;-48
2021/12/22 11:32:32;;;;;;;14.40;6.05;;;;;;;1.07;76.12;100432.47;4961223;28;20055;-49
2021/12/22 11:35:02;;;;;;;10.05;4.90;;;;;;;1.08;76.09;100427.44;4966033;28;20561;-50
2021/12/22 11:37:29;;;;;;;11.10;4.60;;;;;;;1.11;75.89;100426.69;4968213;28;20114;-51
2021/12/22 11:39:57;;;;;;;11.40;5.28;;;;;;;1.11;75.60;100413.94;4970123;28;20054;-53
2021/12/22 11:42:30;;;;;;;12.07;5.60;;;;;;;1.11;74.95;100412.28;4969265;28;20764;-54
2021/12/22 11:45:02;;;;;;;9.98;5.63;;;;;;;1.11;75.54;100406.28;4967988;28;20441;-48
2021/12/22 11:47:34;;;;;;;10.77;5.90;;;;;;;1.11;76.30;100398.63;4970550;28;20557;-53
2021/12/22 11:50:03;;;;;;;12.75;6.20;;;;;;;1.10;75.72;100394.34;4970601;28;20055;-52
2021/12/22 11:52:43;;;;;;;10.13;5.22;;;;;;;1.11;75.86;100404.63;4968852;28;20054;-47